Time;durP1;ratioP1;P1;durP2;ratioP2;P2;SDS_P1;SDS_P2;PMS_P1;PMS_P2;Temp;Humidity;BMP_temperature;BMP_pressure;BME280_temperature;BME280_humidity;BME280_pressure;Samples;Min_cycle;Max_cycle;Signal;HPM_P1;HPM_P2
2021/08/03 00:00:10;;;;;;;4.53;3.90;;;13.30;95.50;;;12.09;85.75;97877.69;4982124;28;20457;-84
2021/08/03 00:02:45;;;;;;;4.57;4.17;;;13.20;95.80;;;11.87;86.27;97855.66;4981436;28;20504;-82
2021/08/03 00:05:18;;;;;;;4.60;4.20;;;13.10;96.10;;;11.99;86.84;97878.22;4985220;28;20460;-81
2021/08/03 00:07:48;;;;;;;4.80;4.50;;;13.10;97.00;;;12.04;86.86;97874.81;4977458;28;20520;-82
2021/08/03 00:10:17;;;;;;;4.47;4.10;;;13.00;97.70;;;12.13;86.80;97875.31;4982853;28;20462;-84
2021/08/03 00:12:50;;;;;;;5.23;4.60;;;13.10;97.90;;;12.18;86.63;97897.16;5001500;28;20444;-85
2021/08/03 00:15:23;;;;;;;4.37;4.07;;;13.10;97.70;;;12.10;86.84;97895.59;4980494;28;20457;-83
2021/08/03 00:17:55;;;;;;;4.20;3.90;;;13.00;97.60;;;12.15;86.69;97898.44;4986952;28;20459;-84
2021/08/03 00:20:26;;;;;;;5.70;4.40;;;13.20;97.90;;;12.02;86.80;97882.34;4962035;28;20532;-83
2021/08/03 00:23:00;;;;;;;4.40;4.10;;;13.10;97.70;;;12.19;86.93;97899.63;4984150;28;20468;-83
2021/08/03 00:25:31;;;;;;;4.17;3.83;;;13.10;98.30;;;11.95;86.37;97851.81;4981351;28;20975;-83
2021/08/03 00:27:58;;;;;;;4.93;4.53;;;13.10;97.90;;;12.28;86.23;97896.59;4994589;28;20520;-85
2021/08/03 00:30:27;;;;;;;3.77;3.57;;;13.30;97.70;;;12.44;85.50;97884.31;4984222;28;20479;-84
2021/08/03 00:32:55;;;;;;;4.20;3.90;;;13.20;97.40;;;12.45;85.02;97894.91;4969022;28;20460;-84
2021/08/03 00:35:23;;;;;;;4.23;3.93;;;13.30;95.80;;;12.31;85.40;97883.44;4981063;28;21004;-83
2021/08/03 00:37:50;;;;;;;4.50;4.10;;;13.40;95.50;;;12.18;85.45;97870.06;4981999;28;20456;-83
2021/08/03 00:40:20;;;;;;;5.33;4.23;;;13.20;95.50;;;11.98;86.30;97871.16;4995013;28;20521;-84
2021/08/03 00:42:48;;;;;;;5.37;4.90;;;13.10;95.40;;;11.68;86.42;97838.59;4992213;28;20489;-85
2021/08/03 00:45:15;;;;;;;10.47;4.67;;;13.00;96.30;;;11.82;86.82;97872.56;4989349;28;20461;-83
2021/08/03 00:47:44;;;;;;;4.40;4.00;;;13.00;96.90;;;11.75;87.13;97869.09;4989388;28;20987;-83
2021/08/03 00:50:11;;;;;;;5.53;4.10;;;12.80;97.70;;;11.79;86.93;97878.44;4968388;28;20464;-82
2021/08/03 00:52:38;;;;;;;5.00;4.50;;;12.80;97.80;;;11.82;86.86;97891.53;4960790;28;20441;-82
2021/08/03 00:55:06;;;;;;;6.13;4.20;;;12.80;96.90;;;11.71;86.92;97882.28;4978968;28;20460;-82
2021/08/03 00:57:34;;;;;;;3.97;3.57;;;12.70;96.80;;;11.52;86.88;97872.50;4968144;28;20927;-82
2021/08/03 01:00:01;;;;;;;4.73;4.37;;;12.60;96.90;;;11.51;87.28;97882.50;4973007;28;20471;-82
2021/08/03 01:02:28;;;;;;;4.70;4.30;;;12.50;97.60;;;11.40;87.04;97880.53;4990386;28;20477;-83
2021/08/03 01:04:56;;;;;;;5.17;4.77;;;12.40;97.90;;;11.32;87.98;97884.38;4968859;28;20464;-82
2021/08/03 01:07:35;;;;;;;8.03;4.43;;;12.40;98.90;;;11.40;87.62;97867.00;4982013;28;20453;-82
2021/08/03 01:10:22;;;;;;;6.10;4.20;;;12.50;99.90;;;11.54;87.81;97876.66;4968851;28;20449;-82
2021/08/03 01:12:57;;;;;;;4.97;4.50;;;12.60;99.90;;;11.46;87.73;97879.66;4970897;28;20480;-82
2021/08/03 01:15:31;;;;;;;4.80;4.47;;;12.50;99.00;;;11.30;87.79;97871.09;4965070;28;20513;-82
2021/08/03 01:18:11;;;;;;;4.30;3.90;;;12.40;99.00;;;11.31;88.05;97882.72;4975273;28;20611;-82
2021/08/03 01:21:05;;;;;;;4.57;4.27;;;12.40;99.30;;;11.52;88.59;97883.31;4957535;28;20477;-82
2021/08/03 01:23:53;;;;;;;4.23;3.90;;;12.40;99.90;;;11.66;87.81;97889.44;4982881;28;20456;-82
2021/08/03 01:26:35;;;;;;;5.10;4.57;;;12.50;99.90;;;11.40;87.94;97880.53;4977902;28;20459;-83
2021/08/03 01:29:10;;;;;;;5.73;5.27;;;12.40;98.80;;;11.11;88.15;97855.88;4961969;28;20441;-82
2021/08/03 01:31:42;;;;;;;4.47;4.13;;;12.30;99.20;;;11.20;88.59;97878.88;4960927;28;20448;-82
2021/08/03 01:34:12;;;;;;;5.30;4.80;;;12.20;99.80;;;11.18;88.39;97878.28;4970028;28;20932;-82
2021/08/03 01:36:44;;;;;;;4.53;4.20;;;12.20;99.90;;;11.03;88.69;97871.34;4971914;28;20454;-82
2021/08/03 01:39:12;;;;;;;4.80;4.37;;;12.10;99.90;;;11.07;89.67;97860.06;4965689;28;20465;-82
2021/08/03 01:41:40;;;;;;;5.60;5.17;;;12.10;99.90;;;11.21;88.76;97872.41;4969085;28;20471;-82
2021/08/03 01:44:12;;;;;;;6.50;4.73;;;12.20;99.90;;;11.44;88.12;97871.75;4961018;28;21108;-83
2021/08/03 01:46:42;;;;;;;4.23;3.83;;;12.40;99.90;;;11.14;87.34;97817.56;4966672;28;20532;-82
2021/08/03 01:49:13;;;;;;;4.53;4.20;;;12.50;99.90;;;11.71;87.42;97878.75;4969724;28;20476;-82
2021/08/03 01:51:42;;;;;;;4.70;4.40;;;12.50;99.90;;;11.73;86.65;97885.59;4979380;28;20456;-82
2021/08/03 01:54:10;;;;;;;4.73;4.43;;;12.70;99.40;;;11.65;86.56;97883.19;4970968;28;20480;-83
2021/08/03 01:56:39;;;;;;;4.13;3.83;;;12.60;97.90;;;11.48;86.93;97851.31;4959234;28;20882;-82
2021/08/03 01:59:08;;;;;;;4.53;3.90;;;12.60;98.60;;;11.65;86.51;97876.94;4974843;28;20480;-82
2021/08/03 02:01:37;;;;;;;4.20;3.90;;;12.70;97.90;;;11.22;87.02;97814.56;4952281;28;20462;-82
2021/08/03 02:04:06;;;;;;;3.93;3.63;;;12.60;98.20;;;11.60;86.60;97883.88;4965233;28;20500;-82
2021/08/03 02:06:33;;;;;;;5.23;4.60;;;12.60;97.80;;;11.40;86.60;97848.91;4970626;28;20453;-82
2021/08/03 02:09:01;;;;;;;4.60;4.20;;;12.60;97.80;;;11.48;87.71;97880.25;4973989;28;20540;-82
2021/08/03 02:11:31;;;;;;;4.90;4.33;;;12.50;97.60;;;11.34;87.64;97880.41;4973692;28;20446;-82
2021/08/03 02:13:58;;;;;;;5.30;4.90;;;12.40;98.00;;;11.27;88.00;97885.03;4978296;28;20458;-83
2021/08/03 02:16:27;;;;;;;5.17;4.77;;;12.30;98.60;;;11.18;87.90;97879.09;4976374;28;20461;-82
2021/08/03 02:18:54;;;;;;;5.00;4.57;;;12.20;99.20;;;11.09;88.50;97879.59;4966091;28;20500;-82
2021/08/03 02:21:23;;;;;;;5.33;4.80;;;12.20;99.70;;;11.01;88.05;97883.41;4970302;28;20529;-82
2021/08/03 02:23:51;;;;;;;5.93;5.40;;;12.00;99.90;;;10.91;88.86;97873.91;4974873;28;20448;-82
2021/08/03 02:26:19;;;;;;;5.53;5.03;;;12.00;99.90;;;10.85;89.67;97880.22;4975749;28;20460;-82
2021/08/03 02:28:52;;;;;;;5.53;5.13;;;11.90;99.90;;;10.87;89.21;97877.31;4979201;28;20462;-82
2021/08/03 02:31:24;;;;;;;6.90;5.10;;;11.90;99.90;;;10.87;89.96;97863.78;4945343;28;20450;-82
2021/08/03 02:33:58;;;;;;;6.60;5.17;;;11.90;99.90;;;11.05;89.75;97869.22;4983575;28;20509;-82
2021/08/03 02:36:30;;;;;;;9.27;6.07;;;12.00;99.90;;;11.04;89.74;97866.75;4971427;28;20465;-82
2021/08/03 02:39:03;;;;;;;5.63;5.13;;;12.00;99.90;;;10.74;89.47;97835.81;4954644;28;20461;-83
2021/08/03 02:41:32;;;;;;;6.03;5.43;;;12.00;99.90;;;10.95;89.20;97874.31;4979379;28;20453;-82
2021/08/03 02:44:00;;;;;;;6.20;5.43;;;12.00;99.90;;;10.87;90.02;97871.91;4968093;28;20462;-82
2021/08/03 02:46:28;;;;;;;6.80;6.10;;;11.90;99.90;;;10.87;89.69;97877.31;4967648;28;20476;-81
2021/08/03 02:49:03;;;;;;;7.63;6.47;;;11.90;99.90;;;10.76;90.13;97876.97;4980945;28;20523;-82
2021/08/03 02:51:35;;;;;;;6.60;6.00;;;11.90;99.90;;;10.73;89.33;97872.00;4980830;28;20523;-82
2021/08/03 02:54:13;;;;;;;7.13;5.50;;;11.80;99.90;;;10.68;90.03;97874.50;4981377;28;20551;-82
2021/08/03 02:56:42;;;;;;;6.00;5.50;;;11.70;99.90;;;10.61;90.30;97868.34;4980529;28;20446;-82
2021/08/03 02:59:14;;;;;;;6.60;6.00;;;11.70;99.90;;;10.51;90.40;97866.13;4981360;28;20450;-82
2021/08/03 03:01:43;;;;;;;7.20;6.60;;;11.60;99.90;;;10.44;90.29;97857.25;4956520;28;20521;-82
2021/08/03 03:04:18;;;;;;;6.93;6.33;;;11.60;99.90;;;10.32;90.75;97838.19;4975723;28;20855;-82
2021/08/03 03:06:50;;;;;;;6.10;5.57;;;11.60;99.90;;;10.42;90.91;97854.78;4980192;28;20482;-82
2021/08/03 03:09:21;;;;;;;7.03;6.40;;;11.60;99.90;;;10.56;91.50;97870.88;4978630;28;20532;-82
2021/08/03 03:11:51;;;;;;;6.53;5.93;;;11.60;99.90;;;10.55;91.10;97874.63;4978413;28;20445;-82
2021/08/03 03:14:21;;;;;;;7.20;6.60;;;11.60;99.90;;;10.23;91.14;97828.69;4967485;28;20868;-82
2021/08/03 03:16:50;;;;;;;8.23;7.43;;;11.60;99.90;;;10.41;91.03;97863.09;4960133;28;20488;-82
2021/08/03 03:19:19;;;;;;;7.93;7.23;;;11.60;99.90;;;10.50;90.73;97878.00;4969218;28;20467;-82
2021/08/03 03:21:49;;;;;;;7.73;7.03;;;11.50;99.90;;;10.49;91.26;97874.44;4970486;28;20452;-83
2021/08/03 03:24:18;;;;;;;7.63;6.93;;;11.60;99.90;;;10.47;90.71;97873.03;4972693;28;20549;-82
2021/08/03 03:26:48;;;;;;;7.40;6.70;;;11.50;99.90;;;10.42;91.10;97870.97;4966548;28;20468;-82
2021/08/03 03:29:17;;;;;;;7.50;6.70;;;11.50;99.90;;;10.43;90.84;97869.94;4967963;28;20487;-82
2021/08/03 03:31:46;;;;;;;7.27;6.63;;;11.50;99.90;;;10.43;91.41;97871.78;4966075;28;20467;-82
2021/08/03 03:34:14;;;;;;;7.60;6.77;;;11.50;99.90;;;10.27;91.19;97856.91;4965276;28;20457;-82
2021/08/03 03:36:45;;;;;;;7.50;6.50;;;11.50;99.90;;;10.45;91.15;97865.13;4970380;28;20541;-82
2021/08/03 03:39:14;;;;;;;7.30;6.70;;;11.50;99.90;;;10.32;91.53;97847.13;4984798;28;20543;-82
2021/08/03 03:41:44;;;;;;;7.30;6.53;;;11.60;99.90;;;10.42;91.41;97862.03;4978569;28;20448;-82
2021/08/03 03:44:11;;;;;;;9.30;6.70;;;11.50;99.90;;;10.39;91.61;97857.88;4967936;28;20528;-82
2021/08/03 03:46:44;;;;;;;8.53;6.90;;;11.50;99.90;;;10.55;91.96;97853.03;4980360;28;20512;-82
2021/08/03 03:49:14;;;;;;;8.67;7.00;;;11.60;99.90;;;10.70;91.20;97856.22;4970640;28;20492;-82
2021/08/03 03:51:44;;;;;;;7.57;6.77;;;11.70;99.90;;;10.61;91.23;97847.56;4953008;28;20488;-82
2021/08/03 03:54:17;;;;;;;8.70;7.90;;;11.70;99.90;;;10.66;90.86;97849.59;4979227;28;20461;-82
2021/08/03 03:56:50;;;;;;;11.00;8.00;;;11.70;99.90;;;10.65;90.54;97842.53;4984974;28;20448;-82
2021/08/03 03:59:21;;;;;;;7.90;6.97;;;11.80;99.90;;;10.75;90.25;97864.50;4969764;28;20461;-82
2021/08/03 04:01:50;;;;;;;8.37;7.00;;;11.80;99.90;;;10.75;90.20;97858.25;4995280;28;20552;-82
2021/08/03 04:04:18;;;;;;;8.00;7.20;;;11.80;99.90;;;10.77;90.39;97857.00;4996509;28;20465;-82
2021/08/03 04:06:48;;;;;;;7.13;6.50;;;11.80;99.90;;;10.85;90.35;97858.59;4998288;28;20456;-82
2021/08/03 04:09:19;;;;;;;6.67;6.07;;;11.80;99.90;;;11.06;89.55;97840.31;4996918;28;20554;-82
2021/08/03 04:11:47;;;;;;;6.43;5.83;;;12.20;99.90;;;11.40;87.55;97842.66;4996765;28;20484;-82
2021/08/03 04:14:22;;;;;;;9.13;5.10;;;12.80;98.60;;;11.57;86.18;97816.66;4996381;28;20455;-82
2021/08/03 04:16:50;;;;;;;5.33;4.03;;;13.50;92.90;;;12.12;84.95;97836.59;4984582;28;20453;-82
2021/08/03 04:19:17;;;;;;;5.33;4.20;;;14.10;90.00;;;12.49;82.63;97837.53;4973803;28;20548;-82
2021/08/03 04:21:45;;;;;;;4.20;3.80;;;14.60;86.10;;;12.68;81.50;97847.25;4964436;28;20489;-82
2021/08/03 04:24:14;;;;;;;4.40;3.87;;;14.90;82.50;;;12.96;80.40;97843.00;4981520;28;20465;-82
2021/08/03 04:26:41;;;;;;;4.07;3.77;;;15.40;80.60;;;13.21;78.94;97835.72;4989460;28;20532;-82
2021/08/03 04:29:09;;;;;;;4.90;3.67;;;15.90;76.70;;;13.53;78.10;97840.78;4980284;28;20516;-82
2021/08/03 04:31:36;;;;;;;5.03;3.50;;;16.30;74.90;;;13.78;76.55;97843.19;4979066;28;21236;-83
2021/08/03 04:34:03;;;;;;;4.77;3.30;;;16.60;72.00;;;14.02;75.85;97821.38;4978974;28;20548;-82
2021/08/03 04:36:30;;;;;;;3.87;3.00;;;16.90;71.10;;;14.37;74.30;97827.69;4975902;28;20473;-83
2021/08/03 04:38:58;;;;;;;4.10;3.70;;;17.40;69.00;;;14.69;72.85;97840.75;4976112;28;20476;-82
2021/08/03 04:41:26;;;;;;;5.17;3.30;;;17.70;66.60;;;14.87;72.05;97834.28;4953411;28;20988;-83
2021/08/03 04:43:53;;;;;;;3.60;3.30;;;18.10;66.00;;;15.08;71.33;97853.63;4974379;28;20532;-83
2021/08/03 04:46:21;;;;;;;4.30;3.40;;;18.30;64.20;;;15.20;70.88;97859.78;4967836;28;20456;-83
2021/08/03 04:48:48;;;;;;;3.83;3.53;;;18.40;63.20;;;15.24;70.75;97852.81;4969583;28;20503;-83
2021/08/03 04:51:14;;;;;;;3.00;2.80;;;18.40;62.90;;;15.05;70.90;97851.41;4968375;28;20879;-82
2021/08/03 04:53:41;;;;;;;3.30;3.10;;;18.00;62.90;;;15.06;71.53;97861.22;4979448;28;20464;-84
2021/08/03 04:56:09;;;;;;;4.00;3.70;;;18.10;63.40;;;15.13;70.23;97840.13;4951245;29;20561;-83
2021/08/03 04:58:38;;;;;;;3.77;3.30;;;18.20;62.20;;;15.14;70.15;97842.56;4970359;28;20982;-83
2021/08/03 05:01:06;;;;;;;4.10;3.70;;;17.80;62.70;;;15.05;70.55;97843.25;4970590;28;20481;-83
2021/08/03 05:03:34;;;;;;;3.60;3.30;;;17.60;63.10;;;15.00;70.47;97847.53;4972915;28;20488;-83
2021/08/03 05:06:01;;;;;;;3.37;2.80;;;17.60;63.60;;;15.13;69.94;97842.84;4970157;28;20511;-83
2021/08/03 05:08:28;;;;;;;6.73;3.27;;;17.80;62.80;;;15.23;70.13;97839.44;4966530;28;20487;-83
2021/08/03 05:10:55;;;;;;;4.10;3.23;;;18.30;62.10;;;15.14;70.17;97847.19;4971587;28;20493;-84
2021/08/03 05:13:22;;;;;;;3.40;3.10;;;18.00;61.80;;;15.26;70.85;97852.53;4968732;28;20537;-84
2021/08/03 05:15:50;;;;;;;3.57;3.07;;;18.00;62.90;;;15.51;70.29;97843.09;4971104;28;20451;-84
2021/08/03 05:18:17;;;;;;;3.27;2.97;;;18.40;62.50;;;15.92;68.52;97837.34;4960388;28;20560;-83
2021/08/03 05:20:45;;;;;;;3.80;3.33;;;18.90;61.40;;;16.01;67.76;97849.44;4980954;28;20486;-83
2021/08/03 05:23:12;;;;;;;3.10;2.90;;;19.00;60.70;;;16.01;67.35;97841.28;4981300;28;20450;-83
2021/08/03 05:25:39;;;;;;;4.70;3.50;;;19.00;60.50;;;16.37;66.08;97814.38;4999274;28;20461;-83
2021/08/03 05:28:08;;;;;;;3.27;2.97;;;19.20;60.20;;;16.85;65.20;97828.16;4980477;28;20445;-83
2021/08/03 05:30:35;;;;;;;3.53;3.17;;;20.10;59.50;;;17.34;63.54;97839.13;4977459;28;20470;-83
2021/08/03 05:33:04;;;;;;;3.10;2.90;;;20.80;58.40;;;17.33;62.85;97834.75;4979117;28;20557;-83
2021/08/03 05:35:31;;;;;;;6.07;3.10;;;20.70;57.70;;;17.64;62.24;97830.28;4967804;28;20464;-83
2021/08/03 05:37:57;;;;;;;2.90;2.57;;;20.90;57.70;;;17.48;62.43;97818.47;4972147;28;20449;-82
2021/08/03 05:40:25;;;;;;;5.60;2.90;;;20.70;57.70;;;17.45;62.47;97819.00;4972181;28;20475;-82
2021/08/03 05:42:51;;;;;;;4.63;3.30;;;20.40;57.90;;;17.39;62.69;97829.06;4975644;28;20524;-81
2021/08/03 05:45:19;;;;;;;2.63;2.43;;;20.50;57.70;;;17.53;62.19;97818.50;4992484;28;20437;-82
2021/08/03 05:47:46;;;;;;;3.83;2.93;;;20.60;57.80;;;17.67;62.03;97827.03;4981926;28;20555;-82
2021/08/03 05:50:14;;;;;;;4.67;2.83;;;20.70;57.60;;;17.86;61.83;97825.72;4968194;28;20797;-82
2021/08/03 05:52:41;;;;;;;3.63;2.67;;;20.70;57.70;;;17.99;61.09;97825.25;4968874;28;20457;-82
2021/08/03 05:55:09;;;;;;;2.83;2.43;;;20.80;57.50;;;17.82;61.40;97807.16;4975322;28;20471;-83
2021/08/03 05:57:36;;;;;;;3.93;3.00;;;20.80;57.50;;;17.78;61.71;97825.16;4975618;28;20791;-82
2021/08/03 06:00:05;;;;;;;3.07;2.87;;;20.60;57.30;;;17.71;61.85;97838.25;4976607;28;20524;-83
2021/08/03 06:02:32;;;;;;;2.50;2.30;;;20.20;57.90;;;17.89;61.74;97822.47;4977265;28;20545;-82
2021/08/03 06:05:00;;;;;;;6.90;2.97;;;20.30;58.10;;;17.84;62.11;97823.25;4976690;28;20465;-82
2021/08/03 06:07:30;;;;;;;2.60;2.40;;;20.40;58.00;;;18.57;59.57;97816.03;4959122;28;20528;-82
2021/08/03 06:09:58;;;;;;;5.37;2.77;;;20.50;57.70;;;18.17;60.57;97826.66;4970234;28;20537;-82
2021/08/03 06:12:26;;;;;;;2.80;2.60;;;20.30;57.80;;;18.01;61.40;97816.75;4970407;28;20484;-82
2021/08/03 06:14:56;;;;;;;2.50;2.30;;;20.10;58.30;;;17.54;62.96;97814.69;4979565;28;20470;-82
2021/08/03 06:17:35;;;;;;;3.20;2.40;;;19.70;59.10;;;17.26;64.14;97811.25;4959475;28;20480;-82
2021/08/03 06:20:02;;;;;;;3.97;2.87;;;19.10;59.70;;;17.18;64.32;97822.66;4974905;28;20509;-81
2021/08/03 06:22:35;;;;;;;5.03;2.40;;;18.50;60.70;;;17.31;64.61;97826.03;4961845;28;21068;-81
2021/08/03 06:25:03;;;;;;;2.80;2.60;;;18.40;61.60;;;17.21;64.45;97794.88;4976691;28;20457;-80
2021/08/03 06:27:32;;;;;;;5.40;2.73;;;18.60;61.80;;;17.39;64.48;97820.06;4991878;28;20452;-81
2021/08/03 06:30:03;;;;;;;4.87;2.30;;;18.70;61.70;;;17.50;64.16;97819.00;4965851;28;20972;-82
2021/08/03 06:32:31;;;;;;;4.07;2.67;;;18.80;61.70;;;17.69;63.78;97818.56;4967766;28;20454;-81
2021/08/03 06:34:58;;;;;;;8.43;2.67;;;18.90;61.70;;;17.68;63.20;97795.06;4979318;28;20445;-81
2021/08/03 06:37:26;;;;;;;3.00;2.70;;;18.90;61.50;;;17.55;63.81;97802.66;4987890;28;20462;-81
2021/08/03 06:39:57;;;;;;;5.00;2.70;;;18.60;61.90;;;17.38;63.89;97788.41;4980171;28;20488;-81
2021/08/03 06:42:36;;;;;;;2.70;2.40;;;18.40;62.00;;;17.29;65.31;97809.91;4978852;28;20988;-81
2021/08/03 06:45:07;;;;;;;6.83;6.03;;;18.20;63.00;;;17.61;64.18;97806.25;4983833;28;20539;-81
2021/08/03 06:47:49;;;;;;;3.93;2.93;;;18.60;62.90;;;17.82;63.44;97815.34;4969137;28;20789;-82
2021/08/03 06:50:19;;;;;;;3.47;3.17;;;18.90;62.20;;;17.99;63.38;97820.56;4976189;28;20455;-81
2021/08/03 06:52:49;;;;;;;3.30;3.00;;;19.20;62.20;;;17.85;62.55;97792.13;4973938;28;20453;-82
2021/08/03 06:55:24;;;;;;;3.20;2.53;;;19.20;61.50;;;17.87;62.81;97806.31;4965193;28;20505;-82
2021/08/03 06:57:54;;;;;;;5.80;2.90;;;19.00;61.80;;;17.70;63.63;97801.09;4965429;28;21024;-81
2021/08/03 07:00:24;;;;;;;3.33;2.13;;;18.70;62.50;;;17.89;63.64;97831.47;4977109;28;20532;-81
2021/08/03 07:02:53;;;;;;;2.97;2.47;;;18.70;62.70;;;18.09;63.25;97814.34;4981847;28;20484;-83
2021/08/03 07:05:25;;;;;;;2.43;2.23;;;18.90;62.80;;;18.25;62.07;97801.53;4975403;28;20452;-80
2021/08/03 07:07:58;;;;;;;3.07;2.40;;;19.00;62.30;;;18.14;62.55;97821.75;4979352;28;20444;-80
2021/08/03 07:10:27;;;;;;;3.00;2.70;;;18.90;62.40;;;18.12;62.67;97800.16;4983210;28;20521;-81
2021/08/03 07:12:55;;;;;;;3.60;2.50;;;18.90;62.60;;;18.37;62.56;97804.00;4990836;28;20476;-80
2021/08/03 07:15:26;;;;;;;2.97;2.23;;;19.10;63.00;;;18.46;62.15;97817.97;4974617;28;20549;-80
2021/08/03 07:17:55;;;;;;;5.90;3.17;;;19.20;62.50;;;18.50;62.51;97815.50;4966705;28;20446;-82
2021/08/03 07:20:23;;;;;;;2.63;2.43;;;19.40;62.70;;;18.58;61.58;97820.44;4974763;28;20525;-80
2021/08/03 07:22:51;;;;;;;3.07;2.40;;;19.40;62.00;;;18.90;60.30;97811.13;4979975;28;20445;-80
2021/08/03 07:25:20;;;;;;;3.00;2.37;;;19.80;61.90;;;19.44;59.18;97824.50;4978099;28;20486;-80
2021/08/03 07:27:52;;;;;;;2.30;2.10;;;20.20;61.50;;;19.70;58.14;97827.13;4960139;28;20956;-80
2021/08/03 07:30:19;;;;;;;4.67;2.00;;;20.70;60.70;;;20.26;56.62;97817.84;4960655;28;21066;-80
2021/08/03 07:32:46;;;;;;;4.30;2.10;;;21.30;60.00;;;20.41;56.96;97830.63;4950586;28;20472;-80
2021/08/03 07:35:15;;;;;;;2.30;1.70;;;21.60;59.50;;;20.67;55.02;97839.50;4977191;28;20486;-80
2021/08/03 07:37:42;;;;;;;1.87;1.40;;;21.80;58.60;;;20.55;54.93;97825.34;4976536;28;20460;-80
2021/08/03 07:40:10;;;;;;;1.83;1.60;;;21.80;58.20;;;20.21;55.64;97837.06;4973663;28;20508;-80
2021/08/03 07:42:38;;;;;;;3.13;2.33;;;21.50;58.20;;;19.98;56.06;97828.41;4975512;28;20469;-80
2021/08/03 07:45:10;;;;;;;2.97;2.17;;;21.50;58.00;;;20.31;54.85;97809.56;4948056;28;20537;-81
2021/08/03 07:47:39;;;;;;;3.80;2.20;;;21.50;57.90;;;20.48;54.01;97835.81;4966749;28;20536;-81
2021/08/03 07:50:07;;;;;;;2.40;2.20;;;21.50;57.50;;;20.48;54.51;97827.56;4977663;28;20461;-81
2021/08/03 07:52:34;;;;;;;4.17;2.37;;;21.10;58.10;;;20.15;54.27;97780.63;4972161;28;20538;-88
2021/08/03 07:55:02;;;;;;;5.15;2.20;;;21.40;58.00;;;19.77;55.05;97768.16;4971696;28;20454;-87
2021/08/03 07:57:30;;;;;;;3.57;2.33;;;21.50;57.60;;;20.21;54.15;97820.59;4975986;28;20219;-85
2021/08/03 07:59:57;;;;;;;2.43;1.80;;;21.30;57.40;;;20.69;53.87;97824.66;4970952;28;20534;-81
2021/08/03 08:02:27;;;;;;;4.67;2.13;;;21.50;57.40;;;20.67;54.09;97827.72;4959637;28;20548;-82
2021/08/03 08:04:54;;;;;;;1.93;1.80;;;21.90;57.60;;;20.43;54.21;97830.34;4952102;28;20477;-84
2021/08/03 08:07:22;;;;;;;2.50;2.30;;;21.70;57.10;;;20.61;53.36;97826.09;4957336;28;20577;-83
2021/08/03 08:09:49;;;;;;;2.50;2.20;;;21.50;57.00;;;20.53;52.64;97798.16;4958552;28;21670;-84
2021/08/03 08:12:18;;;;;;;3.60;2.07;;;21.70;56.60;;;20.70;52.90;97820.81;4950572;28;20461;-84
2021/08/03 08:14:45;;;;;;;2.20;2.00;;;21.60;56.90;;;20.85;53.66;97823.47;4966292;28;20465;-83
2021/08/03 08:17:12;;;;;;;1.90;1.80;;;21.90;57.10;;;20.98;52.67;97819.25;4962116;28;20544;-80
2021/08/03 08:19:41;;;;;;;2.57;2.37;;;22.10;56.60;;;20.91;52.58;97810.50;4958526;28;20541;-84
2021/08/03 08:22:09;;;;;;;2.80;2.10;;;22.20;56.80;;;21.15;52.23;97766.59;4963571;28;20838;-83
2021/08/03 08:24:37;;;;;;;1.90;1.80;;;22.50;56.80;;;22.00;50.21;97823.91;4952486;28;20564;-83
2021/08/03 08:27:04;;;;;;;3.77;2.30;;;22.80;56.30;;;21.86;50.19;97821.06;4965324;28;20497;-83
2021/08/03 08:29:31;;;;;;;1.90;1.70;;;23.00;55.70;;;21.74;50.43;97820.66;4960853;28;20829;-83
2021/08/03 08:31:58;;;;;;;2.77;2.53;;;22.90;55.60;;;21.54;51.38;97799.72;4965789;28;21524;-80
2021/08/03 08:34:25;;;;;;;2.70;1.90;;;22.70;56.10;;;21.56;51.00;97797.47;4970910;28;20541;-84
2021/08/03 08:36:53;;;;;;;2.17;1.97;;;22.90;56.10;;;21.71;50.50;97799.28;4968467;28;20462;-83
2021/08/03 08:39:20;;;;;;;4.80;1.80;;;22.90;55.50;;;22.11;49.93;97807.25;4972292;28;20455;-83
2021/08/03 08:41:48;;;;;;;1.90;1.80;;;22.80;55.90;;;21.72;50.77;97807.19;4957180;28;20497;-81
2021/08/03 08:44:15;;;;;;;2.53;1.60;;;22.40;56.20;;;21.51;50.93;97779.13;4975903;28;20489;-82
2021/08/03 08:46:42;;;;;;;2.20;2.03;;;22.40;56.40;;;21.86;51.06;97796.31;4972459;28;20457;-82
2021/08/03 08:49:09;;;;;;;2.00;1.80;;;22.60;56.50;;;21.72;50.53;97785.22;4975778;28;20483;-81
2021/08/03 08:51:37;;;;;;;2.20;2.00;;;22.60;56.10;;;22.03;50.08;97795.00;4969651;28;20788;-79
2021/08/03 08:54:06;;;;;;;3.03;1.70;;;22.60;56.10;;;21.94;49.96;97800.34;4958837;28;20461;-81
2021/08/03 08:56:33;;;;;;;1.83;1.73;;;22.40;56.00;;;21.96;49.89;97791.78;4970468;28;21177;-79
2021/08/03 08:59:00;;;;;;;1.67;1.57;;;22.40;56.10;;;22.17;50.01;97792.31;4968891;28;20464;-79
2021/08/03 09:01:27;;;;;;;2.13;1.50;;;22.80;56.30;;;22.34;49.99;97783.53;4951309;28;20845;-81
2021/08/03 09:03:54;;;;;;;1.63;1.53;;;23.20;56.00;;;22.81;48.99;97794.63;4971486;28;20468;-81
2021/08/03 09:06:22;;;;;;;4.30;1.60;;;23.60;55.70;;;22.62;48.43;97781.75;4967338;28;20556;-80
2021/08/03 09:08:51;;;;;;;3.43;1.77;;;23.80;55.10;;;22.80;47.09;97732.44;4975641;28;20567;-82
2021/08/03 09:11:25;;;;;;;2.00;1.63;;;23.90;54.80;;;23.30;46.36;97769.56;4971534;28;20457;-80
2021/08/03 09:13:55;;;;;;;1.90;1.80;;;24.20;54.50;;;22.99;46.64;97779.19;4978207;28;20446;-81
2021/08/03 09:16:25;;;;;;;1.67;1.57;;;23.80;54.10;;;23.23;46.73;97766.34;4983732;28;20508;-81
2021/08/03 09:18:54;;;;;;;2.40;1.57;;;23.80;54.70;;;23.25;46.99;97761.34;4990162;28;20461;-80
2021/08/03 09:21:25;;;;;;;1.63;1.13;;;24.10;54.60;;;23.50;45.25;97773.84;4979214;28;20449;-80
2021/08/03 09:23:54;;;;;;;1.50;1.40;;;24.40;53.90;;;23.40;43.72;97747.31;4969296;28;20477;-82
2021/08/03 09:26:46;;;;;;;1.63;1.20;;;24.70;52.80;;;23.61;43.98;97763.44;4991706;28;20468;-82
2021/08/03 09:29:17;;;;;;;3.97;1.50;;;24.70;52.40;;;23.91;43.39;97758.38;4959852;28;20474;-80
2021/08/03 09:31:54;;;;;;;2.00;1.43;;;24.80;52.60;;;23.84;43.48;97760.75;4979236;28;20446;-80
2021/08/03 09:34:23;;;;;;;2.33;1.50;;;24.90;52.30;;;24.18;42.58;97749.25;4967143;28;20529;-81
2021/08/03 09:36:53;;;;;;;2.40;1.53;;;25.00;52.40;;;24.16;43.46;97767.22;4976025;28;20453;-81
2021/08/03 09:39:41;;;;;;;1.50;1.40;;;24.90;53.00;;;24.31;42.41;97775.16;4957886;29;20464;-82
2021/08/03 09:42:14;;;;;;;2.90;1.60;;;25.10;52.00;;;24.33;41.85;97772.09;4975921;28;20565;-82
2021/08/03 09:44:51;;;;;;;1.90;1.67;;;25.20;51.20;;;24.29;41.94;97749.00;4990415;28;20469;-81
2021/08/03 09:47:19;;;;;;;1.60;1.50;;;25.30;51.30;;;24.46;42.75;97770.38;4985197;28;20440;-80
2021/08/03 09:49:49;;;;;;;2.83;1.47;;;25.30;52.00;;;24.24;42.42;97773.94;4989697;28;20452;-82
2021/08/03 09:52:19;;;;;;;3.00;1.40;;;25.20;51.60;;;24.09;41.43;97764.09;4978714;28;20461;-85
2021/08/03 09:54:48;;;;;;;3.77;1.70;;;25.00;50.90;;;23.91;43.02;97772.19;4976056;28;20990;-81
2021/08/03 09:57:22;;;;;;;1.70;1.60;;;24.80;51.70;;;23.66;43.18;97771.59;4968882;28;20529;-79
2021/08/03 09:59:51;;;;;;;1.57;1.47;;;24.90;51.20;;;23.95;42.53;97773.19;4974573;28;20952;-82
2021/08/03 10:02:23;;;;;;;1.37;1.27;;;24.90;51.30;;;23.90;42.79;97754.00;4985084;28;20472;-83
2021/08/03 10:04:53;;;;;;;1.37;1.27;;;24.90;51.60;;;23.79;42.38;97774.66;4991898;28;20477;-83
2021/08/03 10:07:21;;;;;;;4.10;1.33;;;24.80;50.80;;;24.18;41.74;97764.97;4973271;28;20513;-80
2021/08/03 10:09:51;;;;;;;1.57;1.47;;;24.80;50.60;;;23.94;42.10;97771.56;4997235;28;20445;-80
2021/08/03 10:12:24;;;;;;;1.50;1.40;;;24.90;50.80;;;23.55;42.77;97770.16;4987650;28;20454;-85
2021/08/03 10:14:56;;;;;;;1.95;1.60;;;24.80;50.80;;;23.92;42.56;97762.78;4964410;28;20461;-89
2021/08/03 10:17:26;;;;;;;1.70;1.20;;;24.90;51.10;;;23.87;42.12;97749.06;4968283;28;20201;-85
2021/08/03 10:20:00;;;;;;;1.40;1.30;;;24.90;50.60;;;24.53;39.60;97740.41;4951147;29;20474;-84
2021/08/03 10:22:32;;;;;;;1.83;1.37;;;25.20;49.80;;;24.73;39.92;97747.38;4956257;28;20468;-89
2021/08/03 10:25:04;;;;;;;3.55;1.67;;;25.60;50.10;;;24.87;40.68;97741.78;4983840;28;20461;-80
2021/08/03 10:27:49;;;;;;;2.10;1.57;;;25.70;50.80;;;24.44;41.91;97734.84;4982405;28;20233;-85
2021/08/03 10:30:36;;;;;;;1.52;1.42;;;25.60;50.80;;;24.17;43.49;97757.81;4981872;28;20467;-80